createdAt,value
2017-09-20T00:00:19.889Z,983.40
2017-09-20T00:01:19.883Z,983.38
2017-09-20T00:02:19.896Z,983.38
2017-09-20T00:03:19.888Z,983.38
2017-09-20T00:04:19.880Z,983.40
2017-09-20T00:05:19.880Z,983.38
2017-09-20T00:06:19.873Z,983.36
2017-09-20T00:07:19.875Z,983.39
2017-09-20T00:08:19.873Z,983.37
2017-09-20T00:09:19.885Z,983.37
2017-09-20T00:10:19.873Z,983.39
2017-09-20T00:11:19.867Z,983.35
2017-09-20T00:12:19.866Z,983.37
2017-09-20T00:13:19.863Z,983.36
2017-09-20T00:14:19.866Z,983.37
2017-09-20T00:15:19.863Z,983.38
2017-09-20T00:16:19.870Z,983.36
2017-09-20T00:17:19.863Z,983.38
2017-09-20T00:18:19.923Z,983.37
2017-09-20T00:19:19.856Z,983.38
2017-09-20T00:20:19.855Z,983.38
2017-09-20T00:21:19.852Z,983.37
2017-09-20T00:22:19.850Z,983.34
2017-09-20T00:23:19.854Z,983.34
2017-09-20T00:24:19.842Z,983.34
2017-09-20T00:25:19.839Z,983.35
2017-09-20T00:26:19.847Z,983.39
2017-09-20T00:27:19.863Z,983.37
2017-09-20T00:28:19.843Z,983.35
2017-09-20T00:29:19.839Z,983.38
2017-09-20T00:30:19.850Z,983.35
2017-09-20T00:31:19.838Z,983.39
2017-09-20T00:32:19.835Z,983.40
2017-09-20T00:33:19.837Z,983.36
2017-09-20T00:34:19.825Z,983.41
2017-09-20T00:35:19.832Z,983.39
2017-09-20T00:36:19.830Z,983.36
2017-09-20T00:37:19.828Z,983.36
2017-09-20T00:38:19.832Z,983.41
2017-09-20T00:39:19.833Z,983.39
2017-09-20T00:40:19.895Z,983.39
2017-09-20T00:41:19.821Z,983.39
2017-09-20T00:42:19.820Z,983.41
2017-09-20T00:43:19.818Z,983.40
2017-09-20T00:44:19.818Z,983.41
2017-09-20T00:45:19.814Z,983.43
2017-09-20T00:46:19.816Z,983.44
2017-09-20T00:47:19.814Z,983.42
2017-09-20T00:48:19.811Z,983.47
2017-09-20T00:49:19.809Z,983.44
2017-09-20T00:50:19.809Z,983.45
2017-09-20T00:51:19.807Z,983.46
2017-09-20T00:52:19.805Z,983.47
2017-09-20T00:53:19.804Z,983.48
2017-09-20T00:54:19.801Z,983.46
2017-09-20T00:55:19.800Z,983.44
2017-09-20T00:56:19.800Z,983.49
2017-09-20T00:57:19.798Z,983.53
2017-09-20T00:58:19.797Z,983.49
2017-09-20T00:59:19.793Z,983.45
2017-09-20T01:00:19.791Z,983.54
2017-09-20T01:01:19.793Z,983.55
2017-09-20T01:02:19.787Z,983.55
2017-09-20T01:03:19.787Z,983.53
2017-09-20T01:04:19.790Z,983.50
2017-09-20T01:05:19.785Z,983.50
2017-09-20T01:06:19.781Z,983.50
2017-09-20T01:07:19.783Z,983.44
2017-09-20T01:08:19.778Z,983.45
2017-09-20T01:09:19.778Z,983.45
2017-09-20T01:10:19.769Z,983.46
2017-09-20T01:11:19.774Z,983.49
2017-09-20T01:12:19.774Z,983.48
2017-09-20T01:13:19.768Z,983.47
2017-09-20T01:14:19.768Z,983.49
2017-09-20T01:15:19.767Z,983.48
2017-09-20T01:16:19.764Z,983.50
2017-09-20T01:17:19.765Z,983.48
2017-09-20T01:18:19.761Z,983.45
2017-09-20T01:19:19.762Z,983.48
2017-09-20T01:20:19.760Z,983.45
2017-09-20T01:21:19.756Z,983.48
2017-09-20T01:22:19.755Z,983.50
2017-09-20T01:23:19.754Z,983.48
2017-09-20T01:24:19.754Z,983.45
2017-09-20T01:25:19.749Z,983.48
2017-09-20T01:26:19.749Z,983.46
2017-09-20T01:27:19.755Z,983.48
2017-09-20T01:28:19.748Z,983.48
2017-09-20T01:29:19.749Z,983.49
2017-09-20T01:30:19.742Z,983.49
2017-09-20T01:31:19.740Z,983.51
2017-09-20T01:32:19.748Z,983.51
2017-09-20T01:33:19.737Z,983.47
2017-09-20T01:34:19.735Z,983.50
2017-09-20T01:35:19.736Z,983.52
2017-09-20T01:36:19.741Z,983.49
2017-09-20T01:37:19.732Z,983.48
2017-09-20T01:38:19.728Z,983.48
2017-09-20T01:39:19.726Z,983.52
2017-09-20T01:40:19.726Z,983.52
2017-09-20T01:41:19.721Z,983.51
2017-09-20T01:42:19.720Z,983.52
2017-09-20T01:43:19.718Z,983.52
2017-09-20T01:44:19.717Z,983.51
2017-09-20T01:45:19.715Z,983.50
2017-09-20T01:46:19.712Z,983.49
2017-09-20T01:47:19.727Z,983.52
2017-09-20T01:48:19.712Z,983.50
2017-09-20T01:49:19.708Z,983.55
2017-09-20T01:50:19.706Z,983.50
2017-09-20T01:51:19.705Z,983.57
2017-09-20T01:52:19.702Z,983.54
2017-09-20T01:53:19.701Z,983.55
2017-09-20T01:54:19.699Z,983.57
2017-09-20T01:55:19.699Z,983.56
2017-09-20T01:56:19.703Z,983.56
2017-09-20T01:57:19.695Z,983.61
2017-09-20T01:58:19.691Z,983.58
2017-09-20T01:59:19.691Z,983.56
2017-09-20T02:00:19.692Z,983.56
2017-09-20T02:01:19.690Z,983.58
2017-09-20T02:02:19.683Z,983.57
2017-09-20T02:03:19.687Z,983.54
2017-09-20T02:04:19.682Z,983.49
2017-09-20T02:05:19.681Z,983.54
2017-09-20T02:06:19.682Z,983.47
2017-09-20T02:07:19.682Z,983.51
2017-09-20T02:08:19.679Z,983.50
2017-09-20T02:09:19.677Z,983.54
2017-09-20T02:10:19.675Z,983.53
2017-09-20T02:11:19.672Z,983.54
2017-09-20T02:12:19.670Z,983.52
2017-09-20T02:13:19.674Z,983.53
2017-09-20T02:14:19.664Z,983.54
2017-09-20T02:15:19.673Z,983.52
2017-09-20T02:16:19.663Z,983.51
2017-09-20T02:17:19.661Z,983.50
2017-09-20T02:18:19.664Z,983.53
2017-09-20T02:19:19.659Z,983.53
2017-09-20T02:20:19.655Z,983.55
2017-09-20T02:21:19.654Z,983.56
2017-09-20T02:22:19.648Z,983.50
2017-09-20T02:23:19.650Z,983.52
2017-09-20T02:24:19.655Z,983.54
2017-09-20T02:25:19.651Z,983.51
2017-09-20T02:26:19.644Z,983.55
2017-09-20T02:27:19.642Z,983.54
2017-09-20T02:28:19.640Z,983.55
2017-09-20T02:29:19.636Z,983.52
2017-09-20T02:30:19.640Z,983.51
2017-09-20T02:31:19.637Z,983.54
2017-09-20T02:32:19.635Z,983.56
2017-09-20T02:33:19.632Z,983.54
2017-09-20T02:34:19.632Z,983.53
2017-09-20T02:35:19.629Z,983.54
2017-09-20T02:36:19.632Z,983.53
2017-09-20T02:37:19.626Z,983.53
2017-09-20T02:38:19.630Z,983.55
2017-09-20T02:39:19.625Z,983.55
2017-09-20T02:40:19.628Z,983.53
2017-09-20T02:41:19.622Z,983.57
2017-09-20T02:42:19.624Z,983.53
2017-09-20T02:43:19.619Z,983.54
2017-09-20T02:44:19.615Z,983.52
2017-09-20T02:45:19.617Z,983.52
2017-09-20T02:46:19.612Z,983.52
2017-09-20T02:47:19.615Z,983.51
2017-09-20T02:48:19.609Z,983.53
2017-09-20T02:49:19.608Z,983.57
2017-09-20T02:50:19.599Z,983.56
2017-09-20T02:51:27.225Z,983.56
2017-09-20T02:53:13.991Z,983.58
2017-09-20T02:54:13.971Z,983.60
2017-09-20T02:56:07.356Z,983.63
2017-09-20T02:57:07.337Z,983.64
2017-09-20T02:59:01.716Z,983.64
2017-09-20T03:00:01.702Z,983.65
2017-09-20T03:01:55.082Z,983.70
2017-09-20T03:02:55.070Z,983.69
2017-09-20T03:03:55.065Z,983.72
2017-09-20T03:04:55.062Z,983.67
2017-09-20T03:05:55.058Z,983.70
2017-09-20T03:06:55.055Z,983.71
2017-09-20T03:07:55.060Z,983.74
2017-09-20T03:08:55.051Z,983.69
2017-09-20T03:09:55.051Z,983.66
2017-09-20T03:10:55.053Z,983.69
2017-09-20T03:11:55.045Z,983.72
2017-09-20T03:12:55.050Z,983.74
2017-09-20T03:13:55.047Z,983.72
2017-09-20T03:14:55.042Z,983.69
2017-09-20T03:15:55.042Z,983.70
2017-09-20T03:16:55.037Z,983.67
2017-09-20T03:17:55.038Z,983.68
2017-09-20T03:18:55.043Z,983.68
2017-09-20T03:19:55.036Z,983.67
2017-09-20T03:20:55.032Z,983.69
2017-09-20T03:21:55.033Z,983.68
2017-09-20T03:22:55.028Z,983.72
2017-09-20T03:23:55.026Z,983.71
2017-09-20T03:24:55.023Z,983.73
2017-09-20T03:25:55.028Z,983.74
2017-09-20T03:26:55.029Z,983.74
2017-09-20T03:27:55.019Z,983.75
2017-09-20T03:28:55.016Z,983.68
2017-09-20T03:29:55.015Z,983.73
2017-09-20T03:30:55.014Z,983.71
2017-09-20T03:31:55.016Z,983.70
2017-09-20T03:32:55.009Z,983.69
2017-09-20T03:33:55.009Z,983.71
2017-09-20T03:34:55.005Z,983.67
2017-09-20T03:35:55.006Z,983.69
2017-09-20T03:36:55.004Z,983.72
2017-09-20T03:37:55.004Z,983.71
2017-09-20T03:38:54.999Z,983.71
2017-09-20T03:39:55.000Z,983.65
2017-09-20T03:40:54.998Z,983.69
2017-09-20T03:41:54.997Z,983.68
2017-09-20T03:42:55.005Z,983.68
2017-09-20T03:43:54.995Z,983.68
2017-09-20T03:44:54.990Z,983.64
2017-09-20T03:45:54.988Z,983.68
2017-09-20T03:46:54.986Z,983.69
2017-09-20T03:47:54.983Z,983.67
2017-09-20T03:48:54.986Z,983.67
2017-09-20T03:49:54.981Z,983.69
2017-09-20T03:50:54.981Z,983.74
2017-09-20T03:51:54.977Z,983.67
2017-09-20T03:52:54.976Z,983.72
2017-09-20T03:53:54.977Z,983.72
2017-09-20T03:54:54.971Z,983.68
2017-09-20T03:55:54.971Z,983.73
2017-09-20T03:56:54.970Z,983.71
2017-09-20T03:57:54.967Z,983.72
2017-09-20T03:58:54.966Z,983.76
2017-09-20T03:59:54.964Z,983.73
2017-09-20T04:00:54.974Z,983.71
2017-09-20T04:01:54.961Z,983.75
2017-09-20T04:02:54.964Z,983.76
2017-09-20T04:03:54.962Z,983.75
2017-09-20T04:04:54.955Z,983.80
2017-09-20T04:05:54.954Z,983.75
2017-09-20T04:06:54.946Z,983.78
2017-09-20T04:07:54.953Z,983.78
2017-09-20T04:08:54.948Z,983.85
2017-09-20T04:09:54.947Z,983.82
2017-09-20T04:10:54.945Z,983.83
2017-09-20T04:11:54.943Z,983.78
2017-09-20T04:12:54.941Z,983.81
2017-09-20T04:13:54.939Z,983.81
2017-09-20T04:14:54.932Z,983.79
2017-09-20T04:15:54.938Z,983.83
2017-09-20T04:16:54.941Z,983.81
2017-09-20T04:17:54.931Z,983.83
2017-09-20T04:18:54.927Z,983.81
2017-09-20T04:19:54.928Z,983.84
2017-09-20T04:20:54.932Z,983.85
2017-09-20T04:21:54.923Z,983.85
2017-09-20T04:22:54.920Z,983.82
2017-09-20T04:23:54.924Z,983.84
2017-09-20T04:24:54.917Z,983.85
2017-09-20T04:25:54.926Z,983.89
2017-09-20T04:26:54.910Z,983.90
2017-09-20T04:27:54.932Z,983.92
2017-09-20T04:28:54.923Z,983.91
2017-09-20T04:29:54.909Z,983.93
2017-09-20T04:30:54.905Z,983.94
2017-09-20T04:31:54.905Z,983.94
2017-09-20T04:32:54.901Z,983.99
2017-09-20T04:33:54.903Z,984.00
2017-09-20T04:34:54.899Z,984.00
2017-09-20T04:35:54.899Z,983.98
2017-09-20T04:36:54.893Z,984.03
2017-09-20T04:37:54.894Z,984.01
2017-09-20T04:38:54.884Z,984.00
2017-09-20T04:39:54.887Z,984.02
2017-09-20T04:40:54.909Z,984.02
2017-09-20T04:41:54.896Z,984.03
2017-09-20T04:42:54.880Z,984.10
2017-09-20T04:43:54.879Z,984.08
2017-09-20T04:44:54.877Z,984.07
2017-09-20T04:45:54.892Z,984.08
2017-09-20T04:46:54.874Z,984.10
2017-09-20T04:47:54.871Z,984.13
2017-09-20T04:48:54.870Z,984.12
2017-09-20T04:49:54.866Z,984.15
2017-09-20T04:50:54.862Z,984.14
2017-09-20T04:51:54.869Z,984.16
2017-09-20T04:52:54.862Z,984.18
2017-09-20T04:53:54.858Z,984.19
2017-09-20T04:54:54.855Z,984.17
2017-09-20T04:55:54.855Z,984.19
2017-09-20T04:56:54.852Z,984.19
2017-09-20T04:57:54.850Z,984.20
2017-09-20T04:58:54.849Z,984.18
2017-09-20T04:59:54.847Z,984.23
2017-09-20T05:00:54.844Z,984.22
2017-09-20T05:01:54.845Z,984.22
2017-09-20T05:02:54.841Z,984.22
2017-09-20T05:03:54.840Z,984.20
2017-09-20T05:04:54.838Z,984.22
2017-09-20T05:05:54.835Z,984.23
2017-09-20T05:06:54.832Z,984.26
2017-09-20T05:07:54.825Z,984.23
2017-09-20T05:08:54.826Z,984.27
2017-09-20T05:09:54.835Z,984.24
2017-09-20T05:10:54.824Z,984.21
2017-09-20T05:11:54.835Z,984.23
2017-09-20T05:12:54.826Z,984.26
2017-09-20T05:13:54.819Z,984.21
2017-09-20T05:14:54.817Z,984.24
2017-09-20T05:15:54.823Z,984.24
2017-09-20T05:16:54.830Z,984.24
2017-09-20T05:17:54.811Z,984.25
2017-09-20T05:18:54.810Z,984.29
2017-09-20T05:19:54.811Z,984.29
2017-09-20T05:20:54.806Z,984.25
2017-09-20T05:21:54.799Z,984.30
2017-09-20T05:22:54.796Z,984.28
2017-09-20T05:23:54.794Z,984.29
2017-09-20T05:24:54.795Z,984.33
2017-09-20T05:25:54.801Z,984.29
2017-09-20T05:26:54.790Z,984.33
2017-09-20T05:27:54.788Z,984.32
2017-09-20T05:28:54.786Z,984.30
2017-09-20T05:29:54.827Z,984.36
2017-09-20T05:30:54.783Z,984.36
2017-09-20T05:31:54.780Z,984.37
2017-09-20T05:32:54.777Z,984.39
2017-09-20T05:33:54.775Z,984.46
2017-09-20T05:34:54.771Z,984.46
2017-09-20T05:35:54.769Z,984.47
2017-09-20T05:36:54.767Z,984.50
2017-09-20T05:37:54.772Z,984.53
2017-09-20T05:38:54.766Z,984.47
2017-09-20T05:39:54.760Z,984.43
2017-09-20T05:40:54.758Z,984.50
2017-09-20T05:41:54.754Z,984.45
2017-09-20T05:43:03.394Z,984.49
2017-09-20T05:44:48.141Z,984.54
2017-09-20T05:45:48.112Z,984.50
2017-09-20T05:47:41.510Z,984.52
2017-09-20T05:48:41.489Z,984.51
2017-09-20T05:50:35.869Z,984.53
2017-09-20T05:51:35.840Z,984.50
2017-09-20T05:53:30.304Z,984.54
2017-09-20T05:54:30.230Z,984.55
2017-09-20T05:55:30.227Z,984.57
2017-09-20T05:56:30.259Z,984.58
2017-09-20T05:57:30.224Z,984.57
2017-09-20T05:58:30.220Z,984.56
2017-09-20T05:59:30.220Z,984.54
2017-09-20T06:00:30.217Z,984.52
2017-09-20T06:01:30.224Z,984.59
2017-09-20T06:02:30.212Z,984.58
2017-09-20T06:03:30.207Z,984.57
2017-09-20T06:04:30.204Z,984.55
2017-09-20T06:05:30.220Z,984.58
2017-09-20T06:06:30.207Z,984.56
2017-09-20T06:07:30.202Z,984.56
2017-09-20T06:08:30.203Z,984.61
2017-09-20T06:09:30.201Z,984.62
2017-09-20T06:10:30.198Z,984.63
2017-09-20T06:11:30.198Z,984.67
2017-09-20T06:12:30.195Z,984.60
2017-09-20T06:13:30.198Z,984.60
2017-09-20T06:14:30.193Z,984.60
2017-09-20T06:15:30.188Z,984.59
2017-09-20T06:16:30.188Z,984.60
2017-09-20T06:17:30.183Z,984.61
2017-09-20T06:18:30.187Z,984.61
2017-09-20T06:19:30.183Z,984.59
2017-09-20T06:20:30.182Z,984.63
2017-09-20T06:21:30.182Z,984.59
2017-09-20T06:22:30.179Z,984.62
2017-09-20T06:23:30.206Z,984.59
2017-09-20T06:24:30.180Z,984.61
2017-09-20T06:25:30.176Z,984.60
2017-09-20T06:26:30.176Z,984.61
2017-09-20T06:27:30.172Z,984.61
2017-09-20T06:28:30.180Z,984.59
2017-09-20T06:29:30.170Z,984.59
2017-09-20T06:30:30.165Z,984.58
2017-09-20T06:31:30.179Z,984.55
2017-09-20T06:32:30.166Z,984.58
2017-09-20T06:33:30.165Z,984.62
2017-09-20T06:34:30.163Z,984.67
2017-09-20T06:35:30.166Z,984.71
2017-09-20T06:36:30.164Z,984.70
2017-09-20T06:37:30.159Z,984.73
2017-09-20T06:38:30.158Z,984.76
2017-09-20T06:39:30.156Z,984.76
2017-09-20T06:40:30.159Z,984.80
2017-09-20T06:41:30.162Z,984.76
2017-09-20T06:42:30.163Z,984.73
2017-09-20T06:43:30.152Z,984.69
2017-09-20T06:44:30.161Z,984.70
2017-09-20T06:45:30.155Z,984.77
2017-09-20T06:46:30.153Z,984.76
2017-09-20T06:47:30.152Z,984.74
2017-09-20T06:48:30.152Z,984.77
2017-09-20T06:49:30.169Z,984.76
2017-09-20T06:50:30.151Z,984.78
2017-09-20T06:51:30.149Z,984.72
2017-09-20T06:52:30.156Z,984.74
2017-09-20T06:53:30.160Z,984.72
2017-09-20T06:54:30.148Z,984.75
2017-09-20T06:55:30.150Z,984.77
2017-09-20T06:56:30.151Z,984.75
2017-09-20T06:57:30.148Z,984.80
2017-09-20T06:58:30.148Z,984.82
2017-09-20T06:59:30.149Z,984.80
2017-09-20T07:00:30.148Z,984.81
2017-09-20T07:01:30.149Z,984.78
2017-09-20T07:02:30.156Z,984.80
2017-09-20T07:03:30.151Z,984.79
2017-09-20T07:04:30.147Z,984.79
2017-09-20T07:05:30.146Z,984.80
2017-09-20T07:06:30.146Z,984.77
2017-09-20T07:07:30.150Z,984.83
2017-09-20T07:08:30.141Z,984.80
2017-09-20T07:09:30.147Z,984.82
2017-09-20T07:10:30.141Z,984.78
2017-09-20T07:11:30.139Z,984.81
2017-09-20T07:12:30.140Z,984.79
2017-09-20T07:13:30.146Z,984.80
2017-09-20T07:14:30.165Z,984.81
2017-09-20T07:15:30.167Z,984.82
2017-09-20T07:16:30.140Z,984.83
2017-09-20T07:17:30.139Z,984.86
2017-09-20T07:18:30.136Z,984.86
2017-09-20T07:19:30.141Z,984.83
2017-09-20T07:20:30.142Z,984.87
2017-09-20T07:21:30.143Z,984.83
2017-09-20T07:22:30.135Z,984.85
2017-09-20T07:23:30.141Z,984.83
2017-09-20T07:24:30.138Z,984.86
2017-09-20T07:25:30.152Z,984.86
2017-09-20T07:26:30.136Z,984.85
2017-09-20T07:27:30.145Z,984.90
2017-09-20T07:28:30.132Z,984.88
2017-09-20T07:29:30.134Z,984.89
2017-09-20T07:30:30.138Z,984.90
2017-09-20T07:31:30.139Z,984.90
2017-09-20T07:32:30.142Z,984.89
2017-09-20T07:33:30.130Z,984.90
2017-09-20T07:34:30.135Z,984.88
2017-09-20T07:35:30.130Z,984.93
2017-09-20T07:36:30.128Z,984.93
2017-09-20T07:37:30.123Z,984.95
2017-09-20T07:38:30.127Z,984.95
2017-09-20T07:39:30.124Z,984.97
2017-09-20T07:40:30.126Z,984.95
2017-09-20T07:41:30.128Z,984.99
2017-09-20T07:42:30.125Z,984.96
2017-09-20T07:43:30.121Z,984.99
2017-09-20T07:44:30.121Z,984.95
2017-09-20T07:45:30.117Z,985.00
2017-09-20T07:46:30.124Z,985.01
2017-09-20T07:47:30.117Z,985.03
2017-09-20T07:48:30.116Z,985.04
2017-09-20T07:49:30.122Z,985.04
2017-09-20T07:50:30.110Z,985.07
2017-09-20T07:51:30.112Z,985.08
2017-09-20T07:52:30.121Z,985.10
2017-09-20T07:53:30.106Z,985.13
2017-09-20T07:54:30.112Z,985.15
2017-09-20T07:55:30.108Z,985.14
2017-09-20T07:56:30.103Z,985.19
2017-09-20T07:57:30.148Z,985.13
2017-09-20T07:58:30.105Z,985.17
2017-09-20T07:59:30.101Z,985.21
2017-09-20T08:00:30.100Z,985.20
2017-09-20T08:01:30.103Z,985.18
2017-09-20T08:02:30.101Z,985.18
2017-09-20T08:03:30.093Z,985.20
2017-09-20T08:04:30.095Z,985.17
2017-09-20T08:05:37.742Z,985.20
2017-09-20T08:07:25.477Z,985.20
2017-09-20T08:08:25.467Z,985.22
2017-09-20T08:09:25.457Z,985.19
2017-09-20T08:10:25.454Z,985.20
2017-09-20T08:11:25.455Z,985.23
2017-09-20T08:12:25.454Z,985.17
2017-09-20T08:13:25.450Z,985.16
2017-09-20T08:14:25.451Z,985.15
2017-09-20T08:15:25.447Z,985.19
2017-09-20T08:16:25.443Z,985.15
2017-09-20T08:17:25.444Z,985.17
2017-09-20T08:18:25.443Z,985.13
2017-09-20T08:19:25.444Z,985.15
2017-09-20T08:20:25.440Z,985.18
2017-09-20T08:21:25.462Z,985.20
2017-09-20T08:22:25.441Z,985.17
2017-09-20T08:23:34.066Z,985.24
2017-09-20T08:25:18.821Z,985.26
2017-09-20T08:26:18.804Z,985.26
2017-09-20T08:28:12.198Z,985.29
2017-09-20T08:29:12.166Z,985.27
2017-09-20T08:31:05.758Z,985.22
2017-09-20T08:32:05.751Z,985.23
2017-09-20T08:33:59.321Z,985.24
2017-09-20T08:34:59.303Z,985.23
2017-09-20T08:36:53.684Z,985.26
2017-09-20T08:37:53.664Z,985.27
2017-09-20T08:39:47.052Z,985.28
2017-09-20T08:40:47.031Z,985.31
2017-09-20T08:42:40.614Z,985.27
2017-09-20T08:43:40.597Z,985.26
2017-09-20T08:45:35.840Z,985.31
2017-09-20T08:46:35.819Z,985.30
2017-09-20T08:48:29.203Z,985.26
2017-09-20T08:49:29.182Z,985.24
2017-09-20T08:51:23.558Z,985.25
2017-09-20T08:52:23.553Z,985.25
2017-09-20T08:54:17.913Z,985.25
2017-09-20T08:55:17.900Z,985.29
2017-09-20T08:57:11.280Z,985.24
2017-09-20T08:58:11.263Z,985.22
2017-09-20T09:00:07.644Z,985.28
2017-09-20T09:01:07.627Z,985.27
2017-09-20T09:03:01.014Z,985.27
2017-09-20T09:04:00.998Z,985.26
2017-09-20T09:05:54.383Z,985.25
2017-09-20T09:06:54.360Z,985.28
2017-09-20T09:08:47.758Z,985.26
2017-09-20T09:09:47.729Z,985.27
2017-09-20T09:10:47.726Z,985.28
2017-09-20T09:11:47.726Z,985.29
2017-09-20T09:12:47.728Z,985.27
2017-09-20T09:13:47.727Z,985.27
2017-09-20T09:14:47.725Z,985.27
2017-09-20T09:15:47.723Z,985.24
2017-09-20T09:16:47.720Z,985.25
2017-09-20T09:17:47.725Z,985.25
2017-09-20T09:18:47.722Z,985.24
2017-09-20T09:19:47.767Z,985.26
2017-09-20T09:20:47.722Z,985.26
2017-09-20T09:21:47.720Z,985.28
2017-09-20T09:22:47.737Z,985.27
2017-09-20T09:23:47.716Z,985.26
2017-09-20T09:24:47.719Z,985.27
2017-09-20T09:25:47.719Z,985.31
2017-09-20T09:26:47.720Z,985.31
2017-09-20T09:27:47.717Z,985.34
2017-09-20T09:28:47.718Z,985.34
2017-09-20T09:29:47.720Z,985.35
2017-09-20T09:30:47.719Z,985.35
2017-09-20T09:31:47.713Z,985.34
2017-09-20T09:32:47.719Z,985.35
2017-09-20T09:33:47.716Z,985.33
2017-09-20T09:34:47.713Z,985.35
2017-09-20T09:35:47.714Z,985.40
2017-09-20T09:36:47.710Z,985.39
2017-09-20T09:37:47.712Z,985.39
2017-09-20T09:38:47.715Z,985.37
2017-09-20T09:39:47.712Z,985.39
2017-09-20T09:40:47.714Z,985.38
2017-09-20T09:41:47.708Z,985.38
2017-09-20T09:42:47.706Z,985.32
2017-09-20T09:43:47.709Z,985.34
2017-09-20T09:44:47.708Z,985.29
2017-09-20T09:45:47.706Z,985.32
2017-09-20T09:46:47.708Z,985.29
2017-09-20T09:47:47.709Z,985.27
2017-09-20T09:48:47.705Z,985.32
2017-09-20T09:49:47.706Z,985.28
2017-09-20T09:50:47.708Z,985.31
2017-09-20T09:51:47.706Z,985.28
2017-09-20T09:52:47.704Z,985.28
2017-09-20T09:53:47.700Z,985.30
2017-09-20T09:54:47.701Z,985.32
2017-09-20T09:55:47.700Z,985.29
2017-09-20T09:56:47.703Z,985.33
2017-09-20T09:57:47.699Z,985.31
2017-09-20T09:58:47.697Z,985.31
2017-09-20T09:59:47.696Z,985.32
2017-09-20T10:00:47.694Z,985.35
2017-09-20T10:01:47.693Z,985.33
2017-09-20T10:02:47.695Z,985.33
2017-09-20T10:03:47.692Z,985.34
2017-09-20T10:04:47.692Z,985.35
2017-09-20T10:05:47.687Z,985.32
2017-09-20T10:06:47.692Z,985.37
2017-09-20T10:07:47.689Z,985.35
2017-09-20T10:08:47.689Z,985.35
2017-09-20T10:09:47.690Z,985.36
2017-09-20T10:10:47.687Z,985.35
2017-09-20T10:11:47.687Z,985.40
2017-09-20T10:12:47.686Z,985.38
2017-09-20T10:13:47.683Z,985.39
2017-09-20T10:14:47.684Z,985.40
2017-09-20T10:15:47.684Z,985.40
2017-09-20T10:16:47.682Z,985.37
2017-09-20T10:17:47.680Z,985.42
2017-09-20T10:18:47.689Z,985.39
2017-09-20T10:19:47.679Z,985.37
2017-09-20T10:20:47.678Z,985.36
2017-09-20T10:21:47.675Z,985.40
2017-09-20T10:22:47.684Z,985.41
2017-09-20T10:23:47.678Z,985.38
2017-09-20T10:24:47.680Z,985.34
2017-09-20T10:25:47.675Z,985.37
2017-09-20T10:26:47.680Z,985.36
2017-09-20T10:27:47.673Z,985.37
2017-09-20T10:28:47.675Z,985.33
2017-09-20T10:29:47.673Z,985.33
2017-09-20T10:30:47.673Z,985.32
2017-09-20T10:31:47.673Z,985.35
2017-09-20T10:32:47.674Z,985.32
2017-09-20T10:33:47.676Z,985.36
2017-09-20T10:34:47.673Z,985.29
2017-09-20T10:35:47.668Z,985.31
2017-09-20T10:36:47.677Z,985.30
2017-09-20T10:37:47.672Z,985.28
2017-09-20T10:38:47.671Z,985.24
2017-09-20T10:39:47.671Z,985.27
2017-09-20T10:40:47.671Z,985.22
2017-09-20T10:41:47.671Z,985.27
2017-09-20T10:42:47.670Z,985.19
2017-09-20T10:43:47.670Z,985.22
2017-09-20T10:44:47.673Z,985.24
2017-09-20T10:45:47.671Z,985.22
2017-09-20T10:46:47.672Z,985.29
2017-09-20T10:47:47.679Z,985.29
2017-09-20T10:48:47.672Z,985.35
2017-09-20T10:49:47.675Z,985.27
2017-09-20T10:50:47.698Z,985.29
2017-09-20T10:51:47.672Z,985.25
2017-09-20T10:52:47.677Z,985.30
2017-09-20T10:53:47.673Z,985.25
2017-09-20T10:54:47.672Z,985.24
2017-09-20T10:55:47.677Z,985.24
2017-09-20T10:56:47.675Z,985.19
2017-09-20T10:57:47.674Z,985.16
2017-09-20T10:58:47.671Z,985.17
2017-09-20T10:59:47.683Z,985.18
2017-09-20T11:00:47.716Z,985.20
2017-09-20T11:01:47.681Z,985.24
2017-09-20T11:02:47.681Z,985.21
2017-09-20T11:03:47.681Z,985.21
2017-09-20T11:04:47.686Z,985.18
2017-09-20T11:05:47.693Z,985.15
2017-09-20T11:06:47.686Z,985.20
2017-09-20T11:07:47.688Z,985.15
2017-09-20T11:08:47.684Z,985.17
2017-09-20T11:09:47.690Z,985.16
2017-09-20T11:10:47.689Z,985.18
2017-09-20T11:11:47.692Z,985.18
2017-09-20T11:12:47.694Z,985.18
2017-09-20T11:13:47.699Z,985.11
2017-09-20T11:14:47.698Z,985.11
2017-09-20T11:15:47.698Z,985.14
2017-09-20T11:16:47.701Z,985.14
2017-09-20T11:17:47.701Z,985.14
2017-09-20T11:18:47.703Z,985.13
2017-09-20T11:19:47.705Z,985.13
2017-09-20T11:20:47.700Z,985.11
2017-09-20T11:21:47.705Z,985.09
2017-09-20T11:22:47.716Z,985.12
2017-09-20T11:23:47.710Z,985.05
2017-09-20T11:24:47.732Z,985.07
2017-09-20T11:25:47.714Z,985.03
2017-09-20T11:26:47.722Z,985.02
2017-09-20T11:27:49.325Z,984.98
2017-09-20T11:28:47.713Z,984.96
2017-09-20T11:29:47.721Z,984.98
2017-09-20T11:30:47.720Z,984.95
2017-09-20T11:31:49.325Z,984.94
2017-09-20T11:32:47.736Z,984.91
2017-09-20T11:33:47.764Z,984.90
2017-09-20T11:34:47.722Z,984.87
2017-09-20T11:35:47.723Z,984.91
2017-09-20T11:36:47.729Z,984.89
2017-09-20T11:37:47.749Z,984.92
2017-09-20T11:38:47.730Z,984.91
2017-09-20T11:39:47.728Z,984.94
2017-09-20T11:40:47.770Z,984.95
2017-09-20T11:41:47.727Z,984.93
2017-09-20T11:42:47.739Z,984.96
2017-09-20T11:43:47.744Z,984.97
2017-09-20T11:44:47.729Z,984.91
2017-09-20T11:45:47.729Z,984.90
2017-09-20T11:46:47.733Z,984.91
2017-09-20T11:47:47.730Z,984.92
2017-09-20T11:48:47.742Z,984.88
2017-09-20T11:49:47.741Z,984.87
2017-09-20T11:50:47.767Z,984.85
2017-09-20T11:51:47.751Z,984.81
2017-09-20T11:52:47.768Z,984.81
2017-09-20T11:53:47.744Z,984.80
2017-09-20T11:54:47.760Z,984.77
2017-09-20T11:55:47.774Z,984.79
2017-09-20T11:56:47.777Z,984.74
2017-09-20T11:57:47.741Z,984.78
2017-09-20T11:58:47.742Z,984.79
2017-09-20T11:59:48.330Z,984.79
2017-09-20T12:00:47.783Z,984.81
2017-09-20T12:01:47.743Z,984.81
2017-09-20T12:02:47.757Z,984.82
2017-09-20T12:03:47.754Z,984.84
2017-09-20T12:04:47.766Z,984.79
2017-09-20T12:05:48.344Z,984.78
2017-09-20T12:06:47.790Z,984.77
2017-09-20T12:07:47.758Z,984.69
2017-09-20T12:08:47.764Z,984.69
2017-09-20T12:09:47.754Z,984.69
2017-09-20T12:10:47.775Z,984.65
2017-09-20T12:11:55.388Z,984.67
2017-09-20T12:13:42.164Z,984.62
2017-09-20T12:14:42.142Z,984.63
2017-09-20T12:16:36.541Z,984.64
2017-09-20T12:17:36.531Z,984.68
2017-09-20T12:18:36.514Z,984.67
2017-09-20T12:19:36.552Z,984.69
2017-09-20T12:20:38.067Z,984.65
2017-09-20T12:21:36.536Z,984.63
2017-09-20T12:22:36.545Z,984.66
2017-09-20T12:23:36.518Z,984.67
2017-09-20T12:24:36.521Z,984.67
2017-09-20T12:25:36.528Z,984.71
2017-09-20T12:26:36.534Z,984.68
2017-09-20T12:27:45.179Z,984.68
2017-09-20T12:29:30.914Z,984.76
2017-09-20T12:30:30.899Z,984.73
2017-09-20T12:31:30.902Z,984.73
2017-09-20T12:32:30.902Z,984.71
2017-09-20T12:33:30.901Z,984.67
2017-09-20T12:34:30.913Z,984.63
2017-09-20T12:35:30.896Z,984.66
2017-09-20T12:36:30.901Z,984.71
2017-09-20T12:37:30.904Z,984.68
2017-09-20T12:38:30.905Z,984.68
2017-09-20T12:39:30.898Z,984.67
2017-09-20T12:40:30.900Z,984.68
2017-09-20T12:41:30.904Z,984.64
2017-09-20T12:42:30.944Z,984.68
2017-09-20T12:43:30.910Z,984.67
2017-09-20T12:44:30.910Z,984.64
2017-09-20T12:45:30.929Z,984.69
2017-09-20T12:46:30.910Z,984.68
2017-09-20T12:47:30.914Z,984.72
2017-09-20T12:48:30.910Z,984.72
2017-09-20T12:49:30.921Z,984.71
2017-09-20T12:50:30.917Z,984.74
2017-09-20T12:51:30.923Z,984.72
2017-09-20T12:52:30.926Z,984.82
2017-09-20T12:53:30.950Z,984.73